Time;durP1;ratioP1;P1;durP2;ratioP2;P2;SDS_P1;SDS_P2;PMS_P1;PMS_P2;Temp;Humidity;BMP_temperature;BMP_pressure;BME280_temperature;BME280_humidity;BME280_pressure;Samples;Min_cycle;Max_cycle;Signal;HPM_P1;HPM_P2
2023/04/26 00:00:34;;;;;;;;;;;;;;;;;;4984219;28;92203;-65
2023/04/26 00:02:59;;;;;;;;;;;;;;;;;;4983601;28;93195;-65
2023/04/26 00:05:24;;;;;;;;;;;;;;;;;;4975596;28;93486;-65
2023/04/26 00:07:50;;;;;;;;;;;;;;;;;;4983585;28;93186;-65
2023/04/26 00:10:15;;;;;;;;;;;;;;;;;;4981928;28;92245;-64
2023/04/26 00:12:41;;;;;;;;;;;;;;;;;;4982932;28;92883;-65
2023/04/26 00:15:07;;;;;;;;;;;;;;;;;;4985263;28;92238;-65
2023/04/26 00:17:32;;;;;;;;;;;;;;;;;;4982864;28;94167;-66
2023/04/26 00:19:57;;;;;;;;;;;;;;;;;;4985519;28;93049;-62
2023/04/26 00:22:24;;;;;;;;;;;;;;;;;;4982914;28;92246;-64
2023/04/26 00:24:49;;;;;;;;;;;;;;;;;;4980662;28;93623;-64
2023/04/26 00:27:15;;;;;;;;;;;;;;;;;;4983082;28;93727;-64
2023/04/26 00:29:40;;;;;;;;;;;;;;;;;;4980474;28;92686;-65
2023/04/26 00:32:05;;;;;;;;;;;;;;;;;;4983583;28;95707;-63
2023/04/26 00:34:32;;;;;;;;;;;;;;;;;;4979701;28;92977;-64
2023/04/26 00:36:57;;;;;;;;;;;;;;;;;;4979658;28;93733;-64
2023/04/26 00:39:22;;;;;;;;;;;;;;;;;;4978236;28;92703;-66
2023/04/26 00:41:48;;;;;;;;;;;;;;;;;;4980475;28;92814;-63
2023/04/26 00:44:13;;;;;;;;;;;;;;;;;;4979280;28;93762;-65
2023/04/26 00:46:40;;;;;;;;;;;;;;;;;;4981691;28;93051;-64
2023/04/26 00:49:05;;;;;;;;;;;;;;;;;;4985940;28;92392;-65
2023/04/26 00:51:31;;;;;;;;;;;;;;;;;;4983228;28;92519;-65
2023/04/26 00:53:56;;;;;;;;;;;;;;;;;;4982333;28;94023;-64
2023/04/26 00:56:23;;;;;;;;;;;;;;;;;;4984802;28;93123;-64
2023/04/26 00:58:48;;;;;;;;;;;;;;;;;;4978674;28;94189;-65
2023/04/26 01:01:14;;;;;;;;;;;;;;;;;;4979795;28;92268;-65
2023/04/26 01:03:39;;;;;;;;;;;;;;;;;;4974968;28;92675;-66
2023/04/26 01:06:04;;;;;;;;;;;;;;;;;;4975133;28;92881;-66
2023/04/26 01:08:30;;;;;;;;;;;;;;;;;;4982825;28;92670;-67
2023/04/26 01:10:55;;;;;;;;;;;;;;;;;;4982229;28;92656;-66
2023/04/26 01:13:20;;;;;;;;;;;;;;;;;;4977104;28;92776;-63
2023/04/26 01:15:46;;;;;;;;;;;;;;;;;;4985291;28;92563;-66
2023/04/26 01:18:12;;;;;;;;;;;;;;;;;;4980767;28;92785;-65
2023/04/26 01:20:38;;;;;;;;;;;;;;;;;;4978913;28;94483;-64
2023/04/26 01:23:03;;;;;;;;;;;;;;;;;;4981736;28;94423;-64
2023/04/26 01:25:29;;;;;;;;;;;;;;;;;;4980426;28;93446;-62
2023/04/26 01:27:54;;;;;;;;;;;;;;;;;;4979792;28;92754;-64
2023/04/26 01:30:19;;;;;;;;;;;;;;;;;;4975966;28;92615;-64
2023/04/26 01:32:45;;;;;;;;;;;;;;;;;;4983733;28;93260;-65
2023/04/26 01:35:10;;;;;;;;;;;;;;;;;;4985240;28;93105;-64
2023/04/26 01:37:35;;;;;;;;;;;;;;;;;;4982875;28;91996;-66
2023/04/26 01:40:00;;;;;;;;;;;;;;;;;;4982371;28;93729;-64
2023/04/26 01:42:26;;;;;;;;;;;;;;;;;;4982596;28;92515;-64
2023/04/26 01:44:51;;;;;;;;;;;;;;;;;;4981325;28;93507;-65
2023/04/26 01:47:16;;;;;;;;;;;;;;;;;;4977172;28;92753;-66
2023/04/26 01:49:41;;;;;;;;;;;;;;;;;;4985068;28;92823;-65
2023/04/26 01:52:07;;;;;;;;;;;;;;;;;;4981193;28;95441;-64
2023/04/26 01:54:32;;;;;;;;;;;;;;;;;;4981684;28;92967;-65
2023/04/26 01:56:57;;;;;;;;;;;;;;;;;;4985733;28;93826;-63
2023/04/26 01:59:22;;;;;;;;;;;;;;;;;;4982310;28;92217;-62
2023/04/26 02:01:47;;;;;;;;;;;;;;;;;;4980796;28;92626;-65
2023/04/26 02:04:13;;;;;;;;;;;;;;;;;;4976970;28;92877;-65
2023/04/26 02:06:38;;;;;;;;;;;;;;;;;;4978950;28;92244;-63
2023/04/26 02:09:04;;;;;;;;;;;;;;;;;;4981290;28;93190;-61
2023/04/26 02:11:29;;;;;;;;;;;;;;;;;;4978869;28;92881;-64
2023/04/26 02:13:54;;;;;;;;;;;;;;;;;;4980424;28;92726;-64
2023/04/26 02:16:20;;;;;;;;;;;;;;;;;;4982062;28;93141;-64
2023/04/26 02:18:46;;;;;;;;;;;;;;;;;;4972909;28;92978;-65
2023/04/26 02:21:11;;;;;;;;;;;;;;;;;;4977680;28;93598;-61
2023/04/26 02:23:36;;;;;;;;;;;;;;;;;;4980748;28;93687;-63
2023/04/26 02:26:02;;;;;;;;;;;;;;;;;;4980522;28;91939;-63
2023/04/26 02:28:27;;;;;;;;;;;;;;;;;;4980261;28;92988;-65
2023/04/26 02:30:52;;;;;;;;;;;;;;;;;;4979476;28;93382;-64
2023/04/26 02:33:17;;;;;;;;;;;;;;;;;;4981297;28;94454;-65
2023/04/26 02:35:43;;;;;;;;;;;;;;;;;;4976603;28;95609;-61
2023/04/26 02:38:08;;;;;;;;;;;;;;;;;;4980178;28;93019;-63
2023/04/26 02:40:33;;;;;;;;;;;;;;;;;;4980947;28;93580;-65
2023/04/26 02:42:58;;;;;;;;;;;;;;;;;;4975965;28;92581;-65
2023/04/26 02:45:23;;;;;;;;;;;;;;;;;;4977619;28;92340;-64
2023/04/26 02:47:49;;;;;;;;;;;;;;;;;;4972107;28;93487;-66
2023/04/26 02:50:14;;;;;;;;;;;;;;;;;;4980667;28;92902;-65
2023/04/26 02:52:39;;;;;;;;;;;;;;;;;;4978511;28;92717;-65
2023/04/26 02:55:05;;;;;;;;;;;;;;;;;;4983987;28;92934;-66
2023/04/26 02:57:30;;;;;;;;;;;;;;;;;;4977763;28;93690;-62
2023/04/26 02:59:56;;;;;;;;;;;;;;;;;;4983771;28;92872;-62
2023/04/26 03:02:21;;;;;;;;;;;;;;;;;;4983225;28;93454;-63
2023/04/26 03:04:47;;;;;;;;;;;;;;;;;;4979883;28;93600;-62
2023/04/26 03:07:12;;;;;;;;;;;;;;;;;;4982302;28;93789;-63
2023/04/26 03:09:37;;;;;;;;;;;;;;;;;;4981507;28;93833;-62
2023/04/26 03:12:03;;;;;;;;;;;;;;;;;;4986099;28;92726;-66
2023/04/26 03:14:28;;;;;;;;;;;;;;;;;;4982103;28;93082;-66
2023/04/26 03:16:53;;;;;;;;;;;;;;;;;;4980080;28;92598;-60
2023/04/26 03:19:19;;;;;;;;;;;;;;;;;;4983743;28;92463;-62
2023/04/26 03:21:44;;;;;;;;;;;;;;;;;;4981117;28;93625;-63
2023/04/26 03:24:10;;;;;;;;;;;;;;;;;;4983627;28;92704;-65
2023/04/26 03:26:35;;;;;;;;;;;;;;;;;;4984190;28;93615;-63
2023/04/26 03:29:01;;;;;;;;;;;;;;;;;;4979710;28;92697;-62
2023/04/26 03:31:26;;;;;;;;;;;;;;;;;;4977640;28;93310;-65
2023/04/26 03:33:51;;;;;;;;;;;;;;;;;;4980532;28;92963;-64
2023/04/26 03:36:17;;;;;;;;;;;;;;;;;;4979773;28;92751;-62
2023/04/26 03:38:42;;;;;;;;;;;;;;;;;;4980090;28;91479;-61
2023/04/26 03:41:07;;;;;;;;;;;;;;;;;;4982480;28;92860;-60
2023/04/26 03:43:32;;;;;;;;;;;;;;;;;;4988804;28;92706;-61
2023/04/26 03:45:58;;;;;;;;;;;;;;;;;;4980846;28;93793;-63
2023/04/26 03:48:23;;;;;;;;;;;;;;;;;;4978836;28;92757;-62
2023/04/26 03:50:48;;;;;;;;;;;;;;;;;;4982594;28;92822;-60
2023/04/26 03:53:13;;;;;;;;;;;;;;;;;;4979616;28;93371;-64
2023/04/26 03:55:38;;;;;;;;;;;;;;;;;;4983248;28;94637;-66
2023/04/26 03:58:06;;;;;;;;;;;;;;;;;;4977319;28;93353;-64
2023/04/26 04:00:33;;;;;;;;;;;;;;;;;;4980386;28;93108;-62
2023/04/26 04:02:58;;;;;;;;;;;;;;;;;;4979490;28;92348;-63
2023/04/26 04:05:23;;;;;;;;;;;;;;;;;;4976418;28;93549;-64
2023/04/26 04:07:48;;;;;;;;;;;;;;;;;;4974053;28;94006;-64
2023/04/26 04:10:15;;;;;;;;;;;;;;;;;;4977549;28;93171;-61
2023/04/26 04:12:40;;;;;;;;;;;;;;;;;;4975786;28;94400;-62
2023/04/26 04:15:05;;;;;;;;;;;;;;;;;;4980800;28;92810;-61
2023/04/26 04:17:31;;;;;;;;;;;;;;;;;;4975624;28;93355;-64
2023/04/26 04:19:56;;;;;;;;;;;;;;;;;;4975340;28;92848;-62
2023/04/26 04:22:21;;;;;;;;;;;;;;;;;;4973470;28;93289;-59
2023/04/26 04:24:46;;;;;;;;;;;;;;;;;;4984111;28;92319;-64
2023/04/26 04:27:12;;;;;;;;;;;;;;;;;;4976581;28;92252;-63
2023/04/26 04:29:37;;;;;;;;;;;;;;;;;;4975722;28;92383;-61
2023/04/26 04:32:03;;;;;;;;;;;;;;;;;;4975421;28;92822;-63
2023/04/26 04:34:32;;;;;;;;;;;;;;;;;;4975833;28;94890;-64
2023/04/26 04:36:57;;;;;;;;;;;;;;;;;;4977797;28;93605;-63
2023/04/26 04:39:22;;;;;;;;;;;;;;;;;;4979083;28;92665;-66
2023/04/26 04:41:48;;;;;;;;;;;;;;;;;;4978494;28;93422;-65
2023/04/26 04:44:14;;;;;;;;;;;;;;;;;;4971382;28;93542;-65
2023/04/26 04:46:40;;;;;;;;;;;;;;;;;;4979561;28;92821;-65
2023/04/26 04:49:08;;;;;;;;;;;;;;;;;;4978199;28;93041;-64
2023/04/26 04:51:33;;;;;;;;;;;;;;;;;;4977687;28;93360;-65
2023/04/26 04:53:58;;;;;;;;;;;;;;;;;;4973666;28;92695;-65
2023/04/26 04:56:24;;;;;;;;;;;;;;;;;;4976489;28;92568;-66
2023/04/26 04:58:50;;;;;;;;;;;;;;;;;;4978350;28;94480;-64
2023/04/26 05:01:15;;;;;;;;;;;;;;;;;;4976337;28;92652;-66
2023/04/26 05:03:40;;;;;;;;;;;;;;;;;;4980397;28;92217;-64
2023/04/26 05:06:06;;;;;;;;;;;;;;;;;;4981539;28;93596;-66
2023/04/26 05:08:32;;;;;;;;;;;;;;;;;;4981918;28;93719;-63
2023/04/26 05:10:58;;;;;;;;;;;;;;;;;;4977533;28;92719;-63
2023/04/26 05:13:23;;;;;;;;;;;;;;;;;;4977171;28;92792;-63
2023/04/26 05:15:48;;;;;;;;;;;;;;;;;;4979780;28;92497;-63
2023/04/26 05:18:13;;;;;;;;;;;;;;;;;;4973992;28;92904;-64
2023/04/26 05:20:39;;;;;;;;;;;;;;;;;;4973472;28;95181;-66
2023/04/26 05:23:04;;;;;;;;;;;;;;;;;;4975344;28;93664;-62
2023/04/26 05:25:29;;;;;;;;;;;;;;;;;;4974243;28;94393;-64
2023/04/26 05:27:54;;;;;;;;;;;;;;;;;;4977066;28;93609;-64
2023/04/26 05:30:19;;;;;;;;;;;;;;;;;;4977395;28;92728;-63
2023/04/26 05:32:45;;;;;;;;;;;;;;;;;;4981509;28;93170;-65
2023/04/26 05:35:10;;;;;;;;;;;;;;;;;;4978359;28;93166;-62
2023/04/26 05:37:35;;;;;;;;;;;;;;;;;;4980162;28;93681;-66
2023/04/26 05:40:01;;;;;;;;;;;;;;;;;;4974707;28;92107;-63
2023/04/26 05:42:26;;;;;;;;;;;;;;;;;;4976833;28;92894;-61
2023/04/26 05:44:56;;;;;;;;;;;;;;;;;;4977394;28;92455;-60
2023/04/26 05:47:21;;;;;;;;;;;;;;;;;;4975801;28;95305;-63
2023/04/26 05:49:46;;;;;;;;;;;;;;;;;;4975194;28;92745;-63
2023/04/26 05:52:11;;;;;;;;;;;;;;;;;;4976905;28;93227;-64
2023/04/26 05:54:36;;;;;;;;;;;;;;;;;;4977361;28;92827;-64
2023/04/26 05:57:02;;;;;;;;;;;;;;;;;;4977233;28;93235;-63
2023/04/26 05:59:31;;;;;;;;;;;;;;;;;;4972187;28;93644;-64
2023/04/26 06:01:56;;;;;;;;;;;;;;;;;;4980119;28;92794;-63
2023/04/26 06:04:22;;;;;;;;;;;;;;;;;;4979172;28;92444;-63
2023/04/26 06:06:47;;;;;;;;;;;;;;;;;;4978830;28;94036;-65
2023/04/26 06:09:12;;;;;;;;;;;;;;;;;;4980428;28;93477;-65
2023/04/26 06:11:37;;;;;;;;;;;;;;;;;;4995026;28;94105;-65
2023/04/26 06:14:03;;;;;;;;;;;;;;;;;;4981229;28;92678;-64
2023/04/26 06:16:28;;;;;;;;;;;;;;;;;;4975690;28;93336;-64
2023/04/26 06:18:54;;;;;;;;;;;;;;;;;;4977473;28;93122;-61
2023/04/26 06:21:19;;;;;;;;;;;;;;;;;;4971407;28;92766;-66
2023/04/26 06:23:45;;;;;;;;;;;;;;;;;;4972698;28;93584;-67
2023/04/26 06:26:10;;;;;;;;;;;;;;;;;;4976871;28;93777;-63
2023/04/26 06:28:35;;;;;;;;;;;;;;;;;;4976064;28;94545;-65
2023/04/26 06:31:01;;;;;;;;;;;;;;;;;;4972442;28;92744;-62
2023/04/26 06:33:26;;;;;;;;;;;;;;;;;;4980819;28;92721;-63
2023/04/26 06:35:51;;;;;;;;;;;;;;;;;;4973697;28;93543;-64
2023/04/26 06:38:16;;;;;;;;;;;;;;;;;;4971166;28;92619;-63
2023/04/26 06:40:41;;;;;;;;;;;;;;;;;;4982951;28;92258;-64
2023/04/26 06:43:07;;;;;;;;;;;;;;;;;;4981049;28;93543;-65
2023/04/26 06:45:32;;;;;;;;;;;;;;;;;;4979328;28;93172;-64
2023/04/26 06:47:59;;;;;;;;;;;;;;;;;;4978471;28;92249;-63
2023/04/26 06:50:25;;;;;;;;;;;;;;;;;;4982474;28;92546;-64
2023/04/26 06:52:50;;;;;;;;;;;;;;;;;;4981867;28;91872;-64
2023/04/26 06:55:15;;;;;;;;;;;;;;;;;;4980690;28;93613;-66
2023/04/26 06:57:41;;;;;;;;;;;;;;;;;;4985874;28;93247;-65
2023/04/26 07:00:08;;;;;;;;;;;;;;;;;;4984590;28;93942;-67
2023/04/26 07:02:33;;;;;;;;;;;;;;;;;;4979603;28;94457;-66
2023/04/26 07:04:59;;;;;;;;;;;;;;;;;;4982992;28;92908;-67
2023/04/26 07:07:24;;;;;;;;;;;;;;;;;;4980626;28;92949;-65
2023/04/26 07:09:49;;;;;;;;;;;;;;;;;;4979351;28;93762;-64
2023/04/26 07:12:14;;;;;;;;;;;;;;;;;;4980726;28;92796;-67
2023/04/26 07:14:42;;;;;;;;;;;;;;;;;;4977482;28;92872;-63
2023/04/26 07:17:07;;;;;;;;;;;;;;;;;;4981489;28;93863;-65
2023/04/26 07:19:32;;;;;;;;;;;;;;;;;;4977727;28;92694;-66
2023/04/26 07:21:58;;;;;;;;;;;;;;;;;;4979932;28;93147;-66
2023/04/26 07:24:23;;;;;;;;;;;;;;;;;;4980600;28;93485;-69
2023/04/26 07:26:48;;;;;;;;;;;;;;;;;;4985175;28;92951;-67
2023/04/26 07:29:13;;;;;;;;;;;;;;;;;;4977293;28;95520;-65
2023/04/26 07:31:38;;;;;;;;;;;;;;;;;;4981065;28;92845;-66
2023/04/26 07:34:04;;;;;;;;;;;;;;;;;;4981920;28;92893;-66
2023/04/26 07:36:30;;;;;;;;;;;;;;;;;;4982734;28;92508;-69
2023/04/26 07:38:55;;;;;;;;;;;;;;;;;;4990904;28;93164;-66
2023/04/26 07:41:20;;;;;;;;;;;;;;;;;;4980350;28;93295;-64
2023/04/26 07:43:46;;;;;;;;;;;;;;;;;;4974866;28;94522;-65
2023/04/26 07:46:11;;;;;;;;;;;;;;;;;;4981765;28;93129;-63
2023/04/26 07:48:36;;;;;;;;;;;;;;;;;;4984328;28;93635;-67
2023/04/26 07:51:10;;;;;;;;;;;;;;;;;;4983998;28;92770;-69
2023/04/26 07:53:35;;;;;;;;;;;;;;;;;;4977635;28;92440;-70
2023/04/26 07:56:00;;;;;;;;;;;;;;;;;;4975135;28;95241;-70
2023/04/26 07:58:25;;;;;;;;;;;;;;;;;;4977601;28;93646;-68
2023/04/26 08:00:51;;;;;;;;;;;;;;;;;;4980363;28;92859;-64
2023/04/26 08:03:16;;;;;;;;;;;;;;;;;;4981362;28;93879;-69
2023/04/26 08:05:42;;;;;;;;;;;;;;;;;;4981101;28;93200;-69
2023/04/26 08:08:07;;;;;;;;;;;;;;;;;;4976147;28;93688;-71
2023/04/26 08:10:32;;;;;;;;;;;;;;;;;;4977744;28;93008;-70
2023/04/26 08:13:01;;;;;;;;;;;;;;;;;;4982527;28;93174;-66
2023/04/26 08:15:27;;;;;;;;;;;;;;;;;;4982301;28;95168;-70
2023/04/26 08:17:52;;;;;;;;;;;;;;;;;;4982163;28;94026;-69
2023/04/26 08:20:18;;;;;;;;;;;;;;;;;;4982894;28;93373;-69
2023/04/26 08:22:45;;;;;;;;;;;;;;;;;;4985146;28;92694;-69
2023/04/26 08:25:11;;;;;;;;;;;;;;;;;;4982086;28;92772;-70
2023/04/26 08:27:36;;;;;;;;;;;;;;;;;;4979130;28;92909;-67
2023/04/26 08:30:02;;;;;;;;;;;;;;;;;;4977880;28;93187;-70
2023/04/26 08:32:27;;;;;;;;;;;;;;;;;;4977544;28;94167;-68
2023/04/26 08:34:52;;;;;;;;;;;;;;;;;;4978979;28;93847;-70
2023/04/26 08:37:17;;;;;;;;;;;;;;;;;;4977802;28;94117;-71
2023/04/26 08:39:42;;;;;;;;;;;;;;;;;;4979673;28;92702;-70
2023/04/26 08:42:13;;;;;;;;;;;;;;;;;;4982656;28;93664;-71
2023/04/26 08:44:40;;;;;;;;;;;;;;;;;;4975223;28;92508;-69
2023/04/26 08:47:27;;;;;;;;;;;;;;;;;;4970743;28;93863;-70
2023/04/26 08:49:58;;;;;;;;;;;;;;;;;;4973631;28;93595;-69
2023/04/26 08:52:26;;;;;;;;;;;;;;;;;;4978040;28;92431;-65
2023/04/26 08:54:52;;;;;;;;;;;;;;;;;;4981199;28;92719;-65
2023/04/26 08:57:18;;;;;;;;;;;;;;;;;;4973776;28;93551;-67
2023/04/26 08:59:43;;;;;;;;;;;;;;;;;;4981520;28;94760;-63
2023/04/26 09:02:09;;;;;;;;;;;;;;;;;;4977397;28;93564;-63
2023/04/26 09:04:35;;;;;;;;;;;;;;;;;;4980120;28;92240;-68
2023/04/26 09:07:01;;;;;;;;;;;;;;;;;;4978426;28;93382;-68
2023/04/26 09:09:27;;;;;;;;;;;;;;;;;;4974886;28;93206;-66
2023/04/26 09:11:57;;;;;;;;;;;;;;;;;;4974743;28;92908;-64
2023/04/26 09:14:22;;;;;;;;;;;;;;;;;;4973983;28;93564;-63
2023/04/26 09:16:48;;;;;;;;;;;;;;;;;;4979623;28;93381;-61
2023/04/26 09:19:13;;;;;;;;;;;;;;;;;;4977268;28;92925;-67
2023/04/26 09:21:43;;;;;;;;;;;;;;;;;;4977808;28;93651;-64
2023/04/26 09:24:08;;;;;;;;;;;;;;;;;;4974819;28;93969;-67
2023/04/26 09:26:34;;;;;;;;;;;;;;;;;;4978339;28;93579;-63
2023/04/26 09:29:12;;;;;;;;;;;;;;;;;;4972526;28;93681;-68
2023/04/26 09:31:38;;;;;;;;;;;;;;;;;;4970697;28;92256;-65
2023/04/26 09:34:04;;;;;;;;;;;;;;;;;;4972992;28;95456;-61
2023/04/26 09:36:30;;;;;;;;;;;;;;;;;;4974790;28;93863;-64
2023/04/26 09:38:55;;;;;;;;;;;;;;;;;;4973156;28;93741;-68
2023/04/26 09:41:21;;;;;;;;;;;;;;;;;;4973682;28;92781;-69
2023/04/26 09:43:47;;;;;;;;;;;;;;;;;;4970099;28;93134;-64
2023/04/26 09:46:21;;;;;;;;;;;;;;;;;;4971790;28;93379;-67
2023/04/26 09:48:59;;;;;;;;;;;;;;;;;;4976238;28;92772;-69
2023/04/26 09:51:24;;;;;;;;;;;;;;;;;;4969314;28;93575;-67
2023/04/26 09:53:49;;;;;;;;;;;;;;;;;;4971195;28;93097;-67
2023/04/26 09:56:18;;;;;;;;;;;;;;;;;;4973738;28;95253;-66
2023/04/26 09:58:43;;;;;;;;;;;;;;;;;;4980522;28;92763;-64
2023/04/26 10:01:10;;;;;;;;;;;;;;;;;;4971730;28;93301;-69
2023/04/26 10:03:35;;;;;;;;;;;;;;;;;;4970932;28;93904;-66
2023/04/26 10:06:01;;;;;;;;;;;;;;;;;;4970276;28;92644;-70
2023/04/26 10:08:26;;;;;;;;;;;;;;;;;;4971224;28;92703;-68
2023/04/26 10:10:51;;;;;;;;;;;;;;;;;;4972668;28;93159;-68
2023/04/26 10:13:17;;;;;;;;;;;;;;;;;;4973401;28;93657;-62
2023/04/26 10:15:43;;;;;;;;;;;;;;;;;;4969699;28;94631;-65
2023/04/26 10:18:08;;;;;;;;;;;;;;;;;;4978670;28;92306;-65
2023/04/26 10:20:37;;;;;;;;;;;;;;;;;;4976812;28;93327;-64
2023/04/26 10:23:04;;;;;;;;;;;;;;;;;;4975114;28;93251;-64
2023/04/26 10:25:39;;;;;;;;;;;;;;;;;;4972834;28;92595;-64
2023/04/26 10:28:05;;;;;;;;;;;;;;;;;;4969204;28;93680;-64
2023/04/26 10:30:31;;;;;;;;;;;;;;;;;;4974605;28;93489;-66
2023/04/26 10:32:56;;;;;;;;;;;;;;;;;;4977711;28;91952;-64
2023/04/26 10:35:25;;;;;;;;;;;;;;;;;;4974628;28;92548;-66
2023/04/26 10:38:03;;;;;;;;;;;;;;;;;;4976670;28;94562;-63
2023/04/26 10:40:28;;;;;;;;;;;;;;;;;;4976399;28;93481;-65
2023/04/26 10:43:09;;;;;;;;;;;;;;;;;;4973869;28;93872;-68
2023/04/26 10:45:34;;;;;;;;;;;;;;;;;;4974470;28;93454;-66
2023/04/26 10:48:18;;;;;;;;;;;;;;;;;;4975203;28;92716;-62
2023/04/26 10:53:24;;;;;;;;;;;;;;;;;;4978096;28;93026;-64
2023/04/26 10:55:50;;;;;;;;;;;;;;;;;;4973480;28;92999;-69
2023/04/26 10:58:28;;;;;;;;;;;;;;;;;;4983315;28;91548;-62
2023/04/26 11:01:02;;;;;;;;;;;;;;;;;;4972481;28;92693;-63
2023/04/26 11:03:29;;;;;;;;;;;;;;;;;;4973120;28;92896;-65
2023/04/26 11:05:54;;;;;;;;;;;;;;;;;;4975484;28;93737;-63
2023/04/26 11:08:23;;;;;;;;;;;;;;;;;;4977672;28;93336;-67
2023/04/26 11:10:51;;;;;;;;;;;;;;;;;;4975713;28;93870;-62
2023/04/26 11:13:16;;;;;;;;;;;;;;;;;;4977049;28;92451;-63
2023/04/26 11:15:42;;;;;;;;;;;;;;;;;;4980403;28;94269;-69
2023/04/26 11:18:07;;;;;;;;;;;;;;;;;;4974836;28;92274;-67
2023/04/26 11:20:33;;;;;;;;;;;;;;;;;;4980156;28;95233;-64
2023/04/26 11:22:59;;;;;;;;;;;;;;;;;;4973946;28;91964;-66
2023/04/26 11:25:26;;;;;;;;;;;;;;;;;;4978472;28;93156;-68
2023/04/26 11:27:55;;;;;;;;;;;;;;;;;;4978228;28;92696;-65
2023/04/26 11:30:20;;;;;;;;;;;;;;;;;;4976023;28;94649;-65
2023/04/26 11:32:46;;;;;;;;;;;;;;;;;;4981884;28;92910;-66
2023/04/26 11:35:11;;;;;;;;;;;;;;;;;;4979951;28;93482;-63
2023/04/26 11:37:36;;;;;;;;;;;;;;;;;;4983931;28;92630;-62
2023/04/26 11:40:02;;;;;;;;;;;;;;;;;;4975669;28;92870;-65
2023/04/26 11:42:27;;;;;;;;;;;;;;;;;;4979854;28;93748;-64
2023/04/26 11:44:56;;;;;;;;;;;;;;;;;;4977429;28;92554;-62
2023/04/26 11:47:21;;;;;;;;;;;;;;;;;;4975968;28;93657;-62
2023/04/26 11:49:47;;;;;;;;;;;;;;;;;;4979061;28;94870;-64
2023/04/26 11:52:12;;;;;;;;;;;;;;;;;;4976165;28;92710;-71
2023/04/26 11:54:37;;;;;;;;;;;;;;;;;;4979383;28;94139;-66
2023/04/26 11:57:13;;;;;;;;;;;;;;;;;;4973119;28;92784;-65
2023/04/26 11:59:38;;;;;;;;;;;;;;;;;;4982996;28;92425;-69
2023/04/26 12:02:07;;;;;;;;;;;;;;;;;;4973555;28;92807;-62
2023/04/26 12:04:32;;;;;;;;;;;;;;;;;;4973165;28;93239;-63
2023/04/26 12:06:58;;;;;;;;;;;;;;;;;;4974541;28;94018;-67
2023/04/26 12:09:23;;;;;;;;;;;;;;;;;;4973415;28;93926;-71
2023/04/26 12:12:01;;;;;;;;;;;;;;;;;;4985677;28;91986;-68
2023/04/26 12:14:31;;;;;;;;;;;;;;;;;;4976224;28;92430;-70
2023/04/26 12:16:57;;;;;;;;;;;;;;;;;;4978199;28;93095;-67
2023/04/26 12:19:23;;;;;;;;;;;;;;;;;;4977444;28;95757;-68
2023/04/26 12:21:49;;;;;;;;;;;;;;;;;;4979377;28;94713;-67
2023/04/26 12:24:21;;;;;;;;;;;;;;;;;;4976465;28;93725;-73
2023/04/26 12:26:47;;;;;;;;;;;;;;;;;;4981078;28;93514;-72
2023/04/26 12:29:12;;;;;;;;;;;;;;;;;;4977472;28;93922;-69
2023/04/26 12:31:38;;;;;;;;;;;;;;;;;;4981628;28;92984;-69
2023/04/26 12:34:03;;;;;;;;;;;;;;;;;;4981927;28;92556;-66
2023/04/26 12:36:28;;;;;;;;;;;;;;;;;;4977586;28;92346;-69
2023/04/26 12:38:53;;;;;;;;;;;;;;;;;;4980606;28;92976;-67
2023/04/26 12:41:19;;;;;;;;;;;;;;;;;;4979556;28;92800;-67
2023/04/26 12:43:44;;;;;;;;;;;;;;;;;;4974113;28;93671;-70
2023/04/26 12:46:10;;;;;;;;;;;;;;;;;;4978531;28;94321;-70
2023/04/26 12:48:36;;;;;;;;;;;;;;;;;;4978737;28;95910;-71
2023/04/26 12:51:02;;;;;;;;;;;;;;;;;;4978591;28;92797;-68
2023/04/26 12:53:27;;;;;;;;;;;;;;;;;;4978790;28;93745;-69
2023/04/26 12:55:52;;;;;;;;;;;;;;;;;;4974347;28;93116;-70
2023/04/26 12:58:17;;;;;;;;;;;;;;;;;;4971817;28;93668;-71
2023/04/26 13:00:43;;;;;;;;;;;;;;;;;;4977143;28;93560;-72
2023/04/26 13:03:10;;;;;;;;;;;;;;;;;;4983395;28;92855;-68
2023/04/26 13:05:35;;;;;;;;;;;;;;;;;;4978407;28;92745;-72
2023/04/26 13:08:00;;;;;;;;;;;;;;;;;;4977599;28;94141;-72
2023/04/26 13:10:26;;;;;;;;;;;;;;;;;;4977107;28;92875;-70
2023/04/26 13:12:52;;;;;;;;;;;;;;;;;;4978263;28;93730;-70
2023/04/26 13:15:18;;;;;;;;;;;;;;;;;;4977313;28;93707;-72
2023/04/26 13:17:44;;;;;;;;;;;;;;;;;;4976554;28;92227;-67
2023/04/26 13:20:09;;;;;;;;;;;;;;;;;;4972651;28;93648;-68
2023/04/26 13:22:35;;;;;;;;;;;;;;;;;;4976987;28;92605;-72
2023/04/26 13:25:00;;;;;;;;;;;;;;;;;;4982501;28;91472;-68
2023/04/26 13:27:25;;;;;;;;;;;;;;;;;;4975612;28;92621;-72
2023/04/26 13:29:51;;;;;;;;;;;;;;;;;;4976841;28;93624;-68
2023/04/26 13:32:17;;;;;;;;;;;;;;;;;;4977844;28;93780;-67
2023/04/26 13:34:44;;;;;;;;;;;;;;;;;;4977008;28;94273;-73
2023/04/26 13:37:10;;;;;;;;;;;;;;;;;;4972127;28;92895;-70
2023/04/26 13:39:35;;;;;;;;;;;;;;;;;;4972517;28;92634;-71
2023/04/26 13:42:00;;;;;;;;;;;;;;;;;;4975212;28;92671;-72
2023/04/26 13:44:27;;;;;;;;;;;;;;;;;;4972247;28;92293;-67
2023/04/26 13:46:53;;;;;;;;;;;;;;;;;;4977538;28;93592;-66
2023/04/26 13:49:21;;;;;;;;;;;;;;;;;;4977113;28;92169;-71
2023/04/26 13:51:46;;;;;;;;;;;;;;;;;;4973064;28;92723;-71
2023/04/26 13:54:11;;;;;;;;;;;;;;;;;;4976229;28;92741;-70
2023/04/26 13:56:37;;;;;;;;;;;;;;;;;;4977514;28;94314;-71
2023/04/26 13:59:04;;;;;;;;;;;;;;;;;;4977126;28;93075;-70
2023/04/26 14:01:29;;;;;;;;;;;;;;;;;;4974023;28;92650;-71
2023/04/26 14:03:55;;;;;;;;;;;;;;;;;;4976455;28;92230;-72
2023/04/26 14:06:20;;;;;;;;;;;;;;;;;;4976681;28;92705;-69
2023/04/26 14:08:45;;;;;;;;;;;;;;;;;;4976408;28;93718;-70
2023/04/26 14:11:12;;;;;;;;;;;;;;;;;;4981075;28;92303;-71
2023/04/26 14:13:37;;;;;;;;;;;;;;;;;;4972328;28;96333;-71
2023/04/26 14:16:02;;;;;;;;;;;;;;;;;;4978551;28;94522;-69
2023/04/26 14:18:28;;;;;;;;;;;;;;;;;;4975952;28;93371;-70
2023/04/26 14:20:53;;;;;;;;;;;;;;;;;;4977211;28;94001;-72
2023/04/26 14:23:18;;;;;;;;;;;;;;;;;;4978072;28;92691;-63
2023/04/26 14:25:43;;;;;;;;;;;;;;;;;;4980352;28;92790;-71
2023/04/26 14:28:08;;;;;;;;;;;;;;;;;;4980207;28;92749;-68
2023/04/26 14:30:34;;;;;;;;;;;;;;;;;;4978266;28;92954;-70
2023/04/26 14:32:59;;;;;;;;;;;;;;;;;;4974070;28;92865;-71
2023/04/26 14:35:25;;;;;;;;;;;;;;;;;;4979727;28;92713;-73
2023/04/26 14:37:50;;;;;;;;;;;;;;;;;;4978530;28;93702;-65
2023/04/26 14:40:15;;;;;;;;;;;;;;;;;;4975441;28;92757;-72
2023/04/26 14:42:44;;;;;;;;;;;;;;;;;;4979916;28;92292;-71
2023/04/26 14:45:10;;;;;;;;;;;;;;;;;;4980280;28;94137;-64
2023/04/26 14:47:35;;;;;;;;;;;;;;;;;;4979509;28;93914;-72
2023/04/26 14:50:00;;;;;;;;;;;;;;;;;;4979939;28;94176;-71
2023/04/26 14:52:27;;;;;;;;;;;;;;;;;;4975116;28;94285;-71
2023/04/26 14:54:52;;;;;;;;;;;;;;;;;;4977952;28;92704;-71
2023/04/26 14:57:18;;;;;;;;;;;;;;;;;;4975273;28;92834;-68
2023/04/26 14:59:43;;;;;;;;;;;;;;;;;;4971818;28;92897;-73
2023/04/26 15:02:08;;;;;;;;;;;;;;;;;;4982903;28;91924;-68
2023/04/26 15:04:35;;;;;;;;;;;;;;;;;;4973654;28;92991;-72
2023/04/26 15:07:01;;;;;;;;;;;;;;;;;;4978919;28;92710;-69
2023/04/26 15:09:26;;;;;;;;;;;;;;;;;;4971520;28;93247;-70
2023/04/26 15:11:52;;;;;;;;;;;;;;;;;;4982707;28;93297;-70
2023/04/26 15:14:17;;;;;;;;;;;;;;;;;;4978756;28;93920;-72
2023/04/26 15:16:43;;;;;;;;;;;;;;;;;;4978705;28;95532;-72
2023/04/26 15:19:09;;;;;;;;;;;;;;;;;;4974274;28;92655;-70
2023/04/26 15:21:34;;;;;;;;;;;;;;;;;;4979915;28;92402;-69
2023/04/26 15:23:59;;;;;;;;;;;;;;;;;;4978694;28;92465;-70
2023/04/26 15:26:24;;;;;;;;;;;;;;;;;;4977003;28;92409;-72
2023/04/26 15:28:50;;;;;;;;;;;;;;;;;;4978118;28;92901;-70
2023/04/26 15:31:15;;;;;;;;;;;;;;;;;;4981820;28;93157;-68
2023/04/26 15:33:40;;;;;;;;;;;;;;;;;;4982776;28;94567;-73
2023/04/26 15:36:06;;;;;;;;;;;;;;;;;;4975768;28;94177;-72
2023/04/26 15:38:34;;;;;;;;;;;;;;;;;;4979899;28;93500;-72
2023/04/26 15:41:00;;;;;;;;;;;;;;;;;;4977701;28;92734;-71
2023/04/26 15:43:25;;;;;;;;;;;;;;;;;;4973359;28;93203;-70
2023/04/26 15:45:51;;;;;;;;;;;;;;;;;;4978798;28;93770;-69
2023/04/26 15:48:16;;;;;;;;;;;;;;;;;;4976373;28;92436;-71
2023/04/26 15:50:41;;;;;;;;;;;;;;;;;;4978767;28;94093;-64
2023/04/26 15:53:06;;;;;;;;;;;;;;;;;;4991581;28;92755;-64
2023/04/26 15:55:32;;;;;;;;;;;;;;;;;;4976385;28;92254;-67
2023/04/26 15:57:57;;;;;;;;;;;;;;;;;;4977320;28;94691;-68
2023/04/26 16:00:23;;;;;;;;;;;;;;;;;;4975187;28;92625;-66
2023/04/26 16:02:48;;;;;;;;;;;;;;;;;;4983295;28;92738;-65
2023/04/26 16:05:13;;;;;;;;;;;;;;;;;;4975460;28;92603;-67
2023/04/26 16:07:39;;;;;;;;;;;;;;;;;;4978737;28;92513;-66
2023/04/26 16:10:08;;;;;;;;;;;;;;;;;;4980469;28;92560;-63
2023/04/26 16:12:38;;;;;;;;;;;;;;;;;;4972592;28;93934;-67
2023/04/26 16:15:03;;;;;;;;;;;;;;;;;;4979719;28;92215;-63
2023/04/26 16:17:28;;;;;;;;;;;;;;;;;;4977390;28;92935;-64
2023/04/26 16:19:53;;;;;;;;;;;;;;;;;;4972738;28;92771;-64
2023/04/26 16:22:19;;;;;;;;;;;;;;;;;;4971830;28;93232;-63
2023/04/26 16:24:44;;;;;;;;;;;;;;;;;;4977676;28;93874;-63
2023/04/26 16:27:09;;;;;;;;;;;;;;;;;;4977102;28;92590;-63
2023/04/26 16:29:35;;;;;;;;;;;;;;;;;;4973168;28;94031;-70
2023/04/26 16:32:00;;;;;;;;;;;;;;;;;;4972806;28;93716;-63
2023/04/26 16:34:26;;;;;;;;;;;;;;;;;;4969107;28;95562;-64
2023/04/26 16:36:51;;;;;;;;;;;;;;;;;;4975702;28;94491;-64
2023/04/26 16:39:16;;;;;;;;;;;;;;;;;;4978165;28;91963;-64